sensor_id;sensor_type;location;lat;lon;timestamp;P1;durP1;ratioP1;P2;durP2;ratioP2
51224;SDS011;37298;42.688;23.312;2024-02-04T00:00:09;5.22;;;3.50;;
51224;SDS011;37298;42.688;23.312;2024-02-04T00:02:40;6.97;;;3.38;;
51224;SDS011;37298;42.688;23.312;2024-02-04T00:05:06;6.00;;;3.97;;
51224;SDS011;37298;42.688;23.312;2024-02-04T00:07:32;6.40;;;3.50;;
51224;SDS011;37298;42.688;23.312;2024-02-04T00:09:59;4.65;;;3.00;;
51224;SDS011;37298;42.688;23.312;2024-02-04T00:12:25;7.00;;;3.60;;
51224;SDS011;37298;42.688;23.312;2024-02-04T00:14:52;4.65;;;2.95;;
51224;SDS011;37298;42.688;23.312;2024-02-04T00:17:19;6.90;;;3.78;;
51224;SDS011;37298;42.688;23.312;2024-02-04T00:19:45;9.88;;;3.53;;
51224;SDS011;37298;42.688;23.312;2024-02-04T00:22:12;6.35;;;3.55;;
51224;SDS011;37298;42.688;23.312;2024-02-04T00:24:38;17.75;;;4.32;;
51224;SDS011;37298;42.688;23.312;2024-02-04T00:27:05;10.00;;;3.95;;
51224;SDS011;37298;42.688;23.312;2024-02-04T00:29:31;3.45;;;3.13;;
51224;SDS011;37298;42.688;23.312;2024-02-04T00:31:57;6.15;;;3.45;;
51224;SDS011;37298;42.688;23.312;2024-02-04T00:34:24;7.55;;;3.83;;
51224;SDS011;37298;42.688;23.312;2024-02-04T00:36:50;9.35;;;3.58;;
51224;SDS011;37298;42.688;23.312;2024-02-04T00:39:17;5.72;;;3.47;;
51224;SDS011;37298;42.688;23.312;2024-02-04T00:41:44;6.50;;;3.53;;
51224;SDS011;37298;42.688;23.312;2024-02-04T00:44:10;7.10;;;3.33;;
51224;SDS011;37298;42.688;23.312;2024-02-04T00:46:37;5.43;;;3.67;;
51224;SDS011;37298;42.688;23.312;2024-02-04T00:49:03;11.63;;;2.95;;
51224;SDS011;37298;42.688;23.312;2024-02-04T00:51:30;4.85;;;3.70;;
51224;SDS011;37298;42.688;23.312;2024-02-04T00:53:57;5.05;;;3.40;;
51224;SDS011;37298;42.688;23.312;2024-02-04T00:56:23;6.15;;;3.30;;
51224;SDS011;37298;42.688;23.312;2024-02-04T00:58:49;6.72;;;3.38;;
51224;SDS011;37298;42.688;23.312;2024-02-04T01:01:16;5.55;;;3.80;;
51224;SDS011;37298;42.688;23.312;2024-02-04T01:03:43;5.75;;;3.10;;
51224;SDS011;37298;42.688;23.312;2024-02-04T01:06:09;5.53;;;2.42;;
51224;SDS011;37298;42.688;23.312;2024-02-04T01:08:35;6.95;;;3.40;;
51224;SDS011;37298;42.688;23.312;2024-02-04T01:11:04;7.10;;;4.10;;
51224;SDS011;37298;42.688;23.312;2024-02-04T01:13:30;4.80;;;3.20;;
51224;SDS011;37298;42.688;23.312;2024-02-04T01:15:57;6.30;;;3.50;;
51224;SDS011;37298;42.688;23.312;2024-02-04T01:18:23;4.82;;;2.67;;
51224;SDS011;37298;42.688;23.312;2024-02-04T01:20:49;5.38;;;3.58;;
51224;SDS011;37298;42.688;23.312;2024-02-04T01:23:16;6.72;;;3.63;;
51224;SDS011;37298;42.688;23.312;2024-02-04T01:25:43;5.05;;;3.55;;
51224;SDS011;37298;42.688;23.312;2024-02-04T01:28:11;4.32;;;3.10;;
51224;SDS011;37298;42.688;23.312;2024-02-04T01:30:37;7.90;;;3.70;;
51224;SDS011;37298;42.688;23.312;2024-02-04T01:33:03;5.90;;;3.05;;
51224;SDS011;37298;42.688;23.312;2024-02-04T01:35:30;5.07;;;3.30;;
51224;SDS011;37298;42.688;23.312;2024-02-04T01:37:56;4.80;;;2.78;;
51224;SDS011;37298;42.688;23.312;2024-02-04T01:40:22;4.85;;;2.67;;
51224;SDS011;37298;42.688;23.312;2024-02-04T01:42:48;3.05;;;2.47;;
51224;SDS011;37298;42.688;23.312;2024-02-04T01:45:16;4.68;;;3.10;;
51224;SDS011;37298;42.688;23.312;2024-02-04T01:47:42;5.38;;;3.60;;
51224;SDS011;37298;42.688;23.312;2024-02-04T01:50:09;5.95;;;3.67;;
51224;SDS011;37298;42.688;23.312;2024-02-04T01:52:36;4.88;;;2.70;;
51224;SDS011;37298;42.688;23.312;2024-02-04T01:55:03;4.43;;;3.33;;
51224;SDS011;37298;42.688;23.312;2024-02-04T01:57:31;3.78;;;3.13;;
51224;SDS011;37298;42.688;23.312;2024-02-04T01:59:57;7.05;;;3.10;;
51224;SDS011;37298;42.688;23.312;2024-02-04T02:02:25;5.72;;;2.92;;
51224;SDS011;37298;42.688;23.312;2024-02-04T02:04:52;2.97;;;2.13;;
51224;SDS011;37298;42.688;23.312;2024-02-04T02:07:18;4.85;;;2.85;;
51224;SDS011;37298;42.688;23.312;2024-02-04T02:09:46;4.85;;;2.75;;
51224;SDS011;37298;42.688;23.312;2024-02-04T02:12:13;2.72;;;2.15;;
51224;SDS011;37298;42.688;23.312;2024-02-04T02:14:41;7.30;;;2.67;;
51224;SDS011;37298;42.688;23.312;2024-02-04T02:17:10;5.13;;;3.27;;
51224;SDS011;37298;42.688;23.312;2024-02-04T02:19:46;5.30;;;3.25;;
51224;SDS011;37298;42.688;23.312;2024-02-04T02:22:16;4.22;;;2.90;;
51224;SDS011;37298;42.688;23.312;2024-02-04T02:24:47;3.90;;;2.53;;
51224;SDS011;37298;42.688;23.312;2024-02-04T02:27:13;4.40;;;3.10;;
51224;SDS011;37298;42.688;23.312;2024-02-04T02:29:40;6.22;;;3.08;;
51224;SDS011;37298;42.688;23.312;2024-02-04T02:32:06;4.70;;;3.17;;
51224;SDS011;37298;42.688;23.312;2024-02-04T02:34:32;5.30;;;3.38;;
51224;SDS011;37298;42.688;23.312;2024-02-04T02:37:01;7.20;;;3.40;;
51224;SDS011;37298;42.688;23.312;2024-02-04T02:39:30;6.53;;;3.55;;
51224;SDS011;37298;42.688;23.312;2024-02-04T02:41:59;2.58;;;2.00;;
51224;SDS011;37298;42.688;23.312;2024-02-04T02:44:27;3.38;;;2.70;;
51224;SDS011;37298;42.688;23.312;2024-02-04T02:46:54;7.05;;;3.47;;
51224;SDS011;37298;42.688;23.312;2024-02-04T02:49:24;3.20;;;2.53;;
51224;SDS011;37298;42.688;23.312;2024-02-04T02:51:50;5.00;;;3.10;;
51224;SDS011;37298;42.688;23.312;2024-02-04T02:54:16;4.80;;;3.42;;
51224;SDS011;37298;42.688;23.312;2024-02-04T02:56:42;5.90;;;3.47;;
51224;SDS011;37298;42.688;23.312;2024-02-04T02:59:09;5.65;;;3.45;;
51224;SDS011;37298;42.688;23.312;2024-02-04T03:01:38;5.45;;;3.25;;
51224;SDS011;37298;42.688;23.312;2024-02-04T03:04:05;4.65;;;2.97;;
51224;SDS011;37298;42.688;23.312;2024-02-04T03:06:31;5.30;;;3.20;;
51224;SDS011;37298;42.688;23.312;2024-02-04T03:08:57;5.07;;;3.15;;
51224;SDS011;37298;42.688;23.312;2024-02-04T03:11:24;3.40;;;2.47;;
51224;SDS011;37298;42.688;23.312;2024-02-04T03:13:50;5.53;;;3.20;;
51224;SDS011;37298;42.688;23.312;2024-02-04T03:16:17;5.07;;;3.10;;
51224;SDS011;37298;42.688;23.312;2024-02-04T03:18:45;7.47;;;3.53;;
51224;SDS011;37298;42.688;23.312;2024-02-04T03:21:12;9.18;;;3.78;;
51224;SDS011;37298;42.688;23.312;2024-02-04T03:23:39;4.38;;;3.25;;
51224;SDS011;37298;42.688;23.312;2024-02-04T03:26:05;4.05;;;3.13;;
51224;SDS011;37298;42.688;23.312;2024-02-04T03:28:31;4.13;;;3.10;;
51224;SDS011;37298;42.688;23.312;2024-02-04T03:30:58;5.55;;;3.25;;
51224;SDS011;37298;42.688;23.312;2024-02-04T03:33:26;5.82;;;3.13;;
51224;SDS011;37298;42.688;23.312;2024-02-04T03:35:52;5.88;;;3.65;;
51224;SDS011;37298;42.688;23.312;2024-02-04T03:38:19;6.93;;;2.88;;
51224;SDS011;37298;42.688;23.312;2024-02-04T03:40:45;4.65;;;3.30;;
51224;SDS011;37298;42.688;23.312;2024-02-04T03:43:11;5.03;;;2.67;;
51224;SDS011;37298;42.688;23.312;2024-02-04T03:45:38;4.50;;;2.75;;
51224;SDS011;37298;42.688;23.312;2024-02-04T03:48:06;4.47;;;3.20;;
51224;SDS011;37298;42.688;23.312;2024-02-04T03:50:33;4.72;;;3.17;;
51224;SDS011;37298;42.688;23.312;2024-02-04T03:53:01;7.07;;;3.17;;
51224;SDS011;37298;42.688;23.312;2024-02-04T03:55:46;4.55;;;2.63;;
51224;SDS011;37298;42.688;23.312;2024-02-04T03:58:12;4.90;;;2.50;;
51224;SDS011;37298;42.688;23.312;2024-02-04T04:00:38;3.75;;;2.90;;
51224;SDS011;37298;42.688;23.312;2024-02-04T04:03:05;3.67;;;2.95;;
51224;SDS011;37298;42.688;23.312;2024-02-04T04:05:31;6.13;;;2.47;;
51224;SDS011;37298;42.688;23.312;2024-02-04T04:07:58;3.17;;;2.33;;
51224;SDS011;37298;42.688;23.312;2024-02-04T04:10:25;4.45;;;3.00;;
51224;SDS011;37298;42.688;23.312;2024-02-04T04:12:51;4.40;;;2.58;;
51224;SDS011;37298;42.688;23.312;2024-02-04T04:15:17;8.95;;;2.95;;
51224;SDS011;37298;42.688;23.312;2024-02-04T04:17:44;5.03;;;3.88;;
51224;SDS011;37298;42.688;23.312;2024-02-04T04:20:10;3.70;;;2.40;;
51224;SDS011;37298;42.688;23.312;2024-02-04T04:22:38;4.63;;;3.20;;
51224;SDS011;37298;42.688;23.312;2024-02-04T04:25:05;4.07;;;3.00;;
51224;SDS011;37298;42.688;23.312;2024-02-04T04:27:32;4.43;;;3.10;;
51224;SDS011;37298;42.688;23.312;2024-02-04T04:29:58;2.95;;;2.45;;
51224;SDS011;37298;42.688;23.312;2024-02-04T04:32:24;4.63;;;3.22;;
51224;SDS011;37298;42.688;23.312;2024-02-04T04:34:50;4.55;;;3.67;;
51224;SDS011;37298;42.688;23.312;2024-02-04T04:37:17;5.10;;;3.17;;
51224;SDS011;37298;42.688;23.312;2024-02-04T04:39:43;3.28;;;2.60;;
51224;SDS011;37298;42.688;23.312;2024-02-04T04:42:10;4.57;;;3.35;;
51224;SDS011;37298;42.688;23.312;2024-02-04T04:44:37;3.58;;;2.80;;
51224;SDS011;37298;42.688;23.312;2024-02-04T04:47:03;4.32;;;2.70;;
51224;SDS011;37298;42.688;23.312;2024-02-04T04:49:30;3.88;;;2.65;;
51224;SDS011;37298;42.688;23.312;2024-02-04T04:51:56;4.35;;;2.72;;
51224;SDS011;37298;42.688;23.312;2024-02-04T04:54:22;3.90;;;2.95;;
51224;SDS011;37298;42.688;23.312;2024-02-04T04:56:49;4.32;;;2.92;;
51224;SDS011;37298;42.688;23.312;2024-02-04T04:59:16;3.58;;;2.47;;
51224;SDS011;37298;42.688;23.312;2024-02-04T05:01:45;5.57;;;3.13;;
51224;SDS011;37298;42.688;23.312;2024-02-04T05:04:12;3.65;;;2.90;;
51224;SDS011;37298;42.688;23.312;2024-02-04T05:06:38;4.20;;;3.08;;
51224;SDS011;37298;42.688;23.312;2024-02-04T05:09:04;4.00;;;2.70;;
51224;SDS011;37298;42.688;23.312;2024-02-04T05:11:31;5.65;;;3.10;;
51224;SDS011;37298;42.688;23.312;2024-02-04T05:13:57;3.63;;;2.63;;
51224;SDS011;37298;42.688;23.312;2024-02-04T05:16:24;3.38;;;2.90;;
51224;SDS011;37298;42.688;23.312;2024-02-04T05:18:50;5.55;;;3.17;;
51224;SDS011;37298;42.688;23.312;2024-02-04T05:21:17;5.32;;;3.63;;
51224;SDS011;37298;42.688;23.312;2024-02-04T05:23:43;5.82;;;3.22;;
51224;SDS011;37298;42.688;23.312;2024-02-04T05:26:09;5.43;;;2.70;;
51224;SDS011;37298;42.688;23.312;2024-02-04T05:28:36;3.72;;;2.90;;
51224;SDS011;37298;42.688;23.312;2024-02-04T05:31:02;4.13;;;3.17;;
51224;SDS011;37298;42.688;23.312;2024-02-04T05:33:29;3.28;;;2.38;;
51224;SDS011;37298;42.688;23.312;2024-02-04T05:35:55;4.65;;;3.40;;
51224;SDS011;37298;42.688;23.312;2024-02-04T05:38:22;5.78;;;3.30;;
51224;SDS011;37298;42.688;23.312;2024-02-04T05:40:48;5.10;;;3.00;;
51224;SDS011;37298;42.688;23.312;2024-02-04T05:43:14;3.15;;;2.47;;
51224;SDS011;37298;42.688;23.312;2024-02-04T05:45:41;5.85;;;3.60;;
51224;SDS011;37298;42.688;23.312;2024-02-04T05:48:07;3.75;;;2.95;;
51224;SDS011;37298;42.688;23.312;2024-02-04T05:50:34;5.97;;;3.10;;
51224;SDS011;37298;42.688;23.312;2024-02-04T05:53:01;6.15;;;3.30;;
51224;SDS011;37298;42.688;23.312;2024-02-04T05:55:27;3.45;;;2.75;;
51224;SDS011;37298;42.688;23.312;2024-02-04T05:57:54;7.93;;;3.50;;
51224;SDS011;37298;42.688;23.312;2024-02-04T06:00:20;5.25;;;3.03;;
51224;SDS011;37298;42.688;23.312;2024-02-04T06:02:47;6.60;;;3.53;;
51224;SDS011;37298;42.688;23.312;2024-02-04T06:05:13;5.15;;;3.58;;
51224;SDS011;37298;42.688;23.312;2024-02-04T06:07:41;7.13;;;4.40;;
51224;SDS011;37298;42.688;23.312;2024-02-04T06:10:08;6.53;;;4.18;;
51224;SDS011;37298;42.688;23.312;2024-02-04T06:12:35;7.38;;;3.63;;
51224;SDS011;37298;42.688;23.312;2024-02-04T06:15:01;5.53;;;3.60;;
51224;SDS011;37298;42.688;23.312;2024-02-04T06:17:27;7.00;;;4.30;;
51224;SDS011;37298;42.688;23.312;2024-02-04T06:19:54;5.05;;;2.97;;
51224;SDS011;37298;42.688;23.312;2024-02-04T06:22:20;5.32;;;3.55;;
51224;SDS011;37298;42.688;23.312;2024-02-04T06:24:48;5.60;;;4.00;;
51224;SDS011;37298;42.688;23.312;2024-02-04T06:27:15;7.40;;;4.70;;
51224;SDS011;37298;42.688;23.312;2024-02-04T06:29:41;5.30;;;3.60;;
51224;SDS011;37298;42.688;23.312;2024-02-04T06:32:08;3.25;;;2.42;;
51224;SDS011;37298;42.688;23.312;2024-02-04T06:34:34;7.10;;;3.97;;
51224;SDS011;37298;42.688;23.312;2024-02-04T06:37:00;3.33;;;2.55;;
51224;SDS011;37298;42.688;23.312;2024-02-04T06:39:27;7.32;;;3.63;;
51224;SDS011;37298;42.688;23.312;2024-02-04T06:41:53;6.15;;;4.15;;
51224;SDS011;37298;42.688;23.312;2024-02-04T06:44:20;4.70;;;3.00;;
51224;SDS011;37298;42.688;23.312;2024-02-04T06:46:46;5.57;;;3.17;;
51224;SDS011;37298;42.688;23.312;2024-02-04T06:49:13;4.57;;;2.45;;
51224;SDS011;37298;42.688;23.312;2024-02-04T06:51:44;4.32;;;3.03;;
51224;SDS011;37298;42.688;23.312;2024-02-04T06:54:10;4.68;;;2.67;;
51224;SDS011;37298;42.688;23.312;2024-02-04T06:56:37;5.80;;;3.72;;
51224;SDS011;37298;42.688;23.312;2024-02-04T06:59:04;6.00;;;2.65;;
51224;SDS011;37298;42.688;23.312;2024-02-04T07:01:30;3.80;;;2.92;;
51224;SDS011;37298;42.688;23.312;2024-02-04T07:03:57;3.70;;;2.53;;
51224;SDS011;37298;42.688;23.312;2024-02-04T07:06:23;3.90;;;2.40;;
51224;SDS011;37298;42.688;23.312;2024-02-04T07:08:50;5.55;;;3.17;;
51224;SDS011;37298;42.688;23.312;2024-02-04T07:11:16;7.45;;;4.07;;
51224;SDS011;37298;42.688;23.312;2024-02-04T07:13:42;11.25;;;3.08;;
51224;SDS011;37298;42.688;23.312;2024-02-04T07:16:09;4.82;;;2.63;;
51224;SDS011;37298;42.688;23.312;2024-02-04T07:18:35;8.73;;;3.50;;
51224;SDS011;37298;42.688;23.312;2024-02-04T07:21:01;5.50;;;3.35;;
51224;SDS011;37298;42.688;23.312;2024-02-04T07:23:28;4.32;;;2.65;;
51224;SDS011;37298;42.688;23.312;2024-02-04T07:25:54;5.50;;;3.80;;
51224;SDS011;37298;42.688;23.312;2024-02-04T07:28:20;4.57;;;2.90;;
51224;SDS011;37298;42.688;23.312;2024-02-04T07:30:47;4.18;;;3.40;;
51224;SDS011;37298;42.688;23.312;2024-02-04T07:33:14;7.10;;;3.45;;
51224;SDS011;37298;42.688;23.312;2024-02-04T07:35:40;3.75;;;2.40;;
51224;SDS011;37298;42.688;23.312;2024-02-04T07:38:07;4.70;;;2.85;;
51224;SDS011;37298;42.688;23.312;2024-02-04T07:40:33;7.28;;;2.88;;
51224;SDS011;37298;42.688;23.312;2024-02-04T07:42:59;6.18;;;3.40;;
51224;SDS011;37298;42.688;23.312;2024-02-04T07:45:26;3.67;;;2.75;;
51224;SDS011;37298;42.688;23.312;2024-02-04T07:47:52;6.88;;;3.28;;
51224;SDS011;37298;42.688;23.312;2024-02-04T07:50:19;4.22;;;3.33;;
51224;SDS011;37298;42.688;23.312;2024-02-04T07:52:45;5.45;;;3.30;;
51224;SDS011;37298;42.688;23.312;2024-02-04T07:55:11;3.90;;;2.67;;
51224;SDS011;37298;42.688;23.312;2024-02-04T07:57:37;5.47;;;3.05;;
51224;SDS011;37298;42.688;23.312;2024-02-04T08:00:04;5.10;;;3.42;;
51224;SDS011;37298;42.688;23.312;2024-02-04T08:02:37;5.15;;;3.65;;
51224;SDS011;37298;42.688;23.312;2024-02-04T08:05:04;9.35;;;3.17;;
51224;SDS011;37298;42.688;23.312;2024-02-04T08:07:31;5.05;;;2.92;;
51224;SDS011;37298;42.688;23.312;2024-02-04T08:09:57;4.30;;;2.75;;
51224;SDS011;37298;42.688;23.312;2024-02-04T08:12:23;5.68;;;3.20;;
51224;SDS011;37298;42.688;23.312;2024-02-04T08:14:50;3.70;;;2.80;;
51224;SDS011;37298;42.688;23.312;2024-02-04T08:17:16;5.38;;;2.78;;
51224;SDS011;37298;42.688;23.312;2024-02-04T08:19:42;3.83;;;2.90;;
51224;SDS011;37298;42.688;23.312;2024-02-04T08:22:08;5.43;;;3.42;;
51224;SDS011;37298;42.688;23.312;2024-02-04T08:24:35;3.08;;;2.45;;
51224;SDS011;37298;42.688;23.312;2024-02-04T08:27:02;5.20;;;3.33;;
51224;SDS011;37298;42.688;23.312;2024-02-04T08:29:29;4.20;;;2.70;;
51224;SDS011;37298;42.688;23.312;2024-02-04T08:31:55;4.43;;;2.60;;
51224;SDS011;37298;42.688;23.312;2024-02-04T08:34:22;4.40;;;4.00;;
51224;SDS011;37298;42.688;23.312;2024-02-04T08:36:49;5.40;;;2.47;;
51224;SDS011;37298;42.688;23.312;2024-02-04T08:39:15;4.65;;;2.88;;
51224;SDS011;37298;42.688;23.312;2024-02-04T08:41:43;4.90;;;3.20;;
51224;SDS011;37298;42.688;23.312;2024-02-04T08:44:10;3.38;;;2.67;;
51224;SDS011;37298;42.688;23.312;2024-02-04T08:46:36;6.13;;;2.92;;
51224;SDS011;37298;42.688;23.312;2024-02-04T08:49:02;6.18;;;2.70;;
51224;SDS011;37298;42.688;23.312;2024-02-04T08:51:28;6.32;;;2.75;;
51224;SDS011;37298;42.688;23.312;2024-02-04T08:53:55;4.05;;;3.03;;
51224;SDS011;37298;42.688;23.312;2024-02-04T08:56:21;3.80;;;2.63;;
51224;SDS011;37298;42.688;23.312;2024-02-04T08:58:48;4.47;;;3.10;;
51224;SDS011;37298;42.688;23.312;2024-02-04T09:01:14;4.95;;;3.20;;
51224;SDS011;37298;42.688;23.312;2024-02-04T09:03:41;5.35;;;3.05;;
51224;SDS011;37298;42.688;23.312;2024-02-04T09:06:07;6.75;;;3.83;;
51224;SDS011;37298;42.688;23.312;2024-02-04T09:08:33;11.40;;;3.25;;
51224;SDS011;37298;42.688;23.312;2024-02-04T09:11:00;5.63;;;2.97;;
51224;SDS011;37298;42.688;23.312;2024-02-04T09:13:26;3.53;;;2.30;;
51224;SDS011;37298;42.688;23.312;2024-02-04T09:15:53;3.65;;;2.50;;
51224;SDS011;37298;42.688;23.312;2024-02-04T09:18:20;4.50;;;3.08;;
51224;SDS011;37298;42.688;23.312;2024-02-04T09:20:46;3.72;;;2.72;;
51224;SDS011;37298;42.688;23.312;2024-02-04T09:23:12;5.35;;;3.10;;
51224;SDS011;37298;42.688;23.312;2024-02-04T09:25:39;3.97;;;2.90;;
51224;SDS011;37298;42.688;23.312;2024-02-04T09:28:06;5.10;;;3.13;;
51224;SDS011;37298;42.688;23.312;2024-02-04T09:30:32;6.53;;;3.80;;
51224;SDS011;37298;42.688;23.312;2024-02-04T09:32:59;5.72;;;2.50;;
51224;SDS011;37298;42.688;23.312;2024-02-04T09:35:25;3.28;;;2.20;;
51224;SDS011;37298;42.688;23.312;2024-02-04T09:37:52;3.53;;;2.30;;
51224;SDS011;37298;42.688;23.312;2024-02-04T09:40:18;5.65;;;2.88;;
51224;SDS011;37298;42.688;23.312;2024-02-04T09:42:45;7.20;;;2.72;;
51224;SDS011;37298;42.688;23.312;2024-02-04T09:45:11;3.97;;;2.40;;
51224;SDS011;37298;42.688;23.312;2024-02-04T09:47:40;9.45;;;2.65;;
51224;SDS011;37298;42.688;23.312;2024-02-04T09:50:09;4.47;;;2.40;;
51224;SDS011;37298;42.688;23.312;2024-02-04T09:52:36;2.58;;;2.08;;
51224;SDS011;37298;42.688;23.312;2024-02-04T09:57:31;3.60;;;2.30;;
51224;SDS011;37298;42.688;23.312;2024-02-04T09:59:58;6.78;;;2.75;;
51224;SDS011;37298;42.688;23.312;2024-02-04T10:02:24;3.50;;;2.40;;
51224;SDS011;37298;42.688;23.312;2024-02-04T10:04:50;3.78;;;2.53;;
51224;SDS011;37298;42.688;23.312;2024-02-04T10:07:17;12.70;;;2.80;;
51224;SDS011;37298;42.688;23.312;2024-02-04T10:09:44;3.88;;;2.15;;
51224;SDS011;37298;42.688;23.312;2024-02-04T10:12:10;10.75;;;2.03;;
51224;SDS011;37298;42.688;23.312;2024-02-04T10:14:37;5.88;;;2.05;;
51224;SDS011;37298;42.688;23.312;2024-02-04T10:17:03;2.10;;;1.67;;
51224;SDS011;37298;42.688;23.312;2024-02-04T10:19:30;3.22;;;2.22;;
51224;SDS011;37298;42.688;23.312;2024-02-04T10:21:57;2.95;;;1.85;;
51224;SDS011;37298;42.688;23.312;2024-02-04T10:24:25;2.70;;;2.13;;
51224;SDS011;37298;42.688;23.312;2024-02-04T10:26:51;2.92;;;2.08;;
51224;SDS011;37298;42.688;23.312;2024-02-04T10:29:17;2.80;;;1.63;;
51224;SDS011;37298;42.688;23.312;2024-02-04T10:31:44;4.38;;;3.30;;
51224;SDS011;37298;42.688;23.312;2024-02-04T10:34:10;5.78;;;2.50;;
51224;SDS011;37298;42.688;23.312;2024-02-04T10:36:36;2.05;;;1.70;;
51224;SDS011;37298;42.688;23.312;2024-02-04T10:39:03;4.00;;;1.80;;
51224;SDS011;37298;42.688;23.312;2024-02-04T10:41:30;1.88;;;1.67;;
51224;SDS011;37298;42.688;23.312;2024-02-04T10:43:58;3.42;;;2.45;;
51224;SDS011;37298;42.688;23.312;2024-02-04T10:46:25;7.45;;;2.17;;
51224;SDS011;37298;42.688;23.312;2024-02-04T10:48:55;3.65;;;2.60;;
51224;SDS011;37298;42.688;23.312;2024-02-04T10:51:23;4.88;;;3.30;;
51224;SDS011;37298;42.688;23.312;2024-02-04T10:53:50;4.95;;;3.40;;
51224;SDS011;37298;42.688;23.312;2024-02-04T10:56:18;6.38;;;3.35;;
51224;SDS011;37298;42.688;23.312;2024-02-04T10:58:46;6.60;;;2.65;;
51224;SDS011;37298;42.688;23.312;2024-02-04T11:01:13;4.28;;;2.92;;
51224;SDS011;37298;42.688;23.312;2024-02-04T11:03:39;3.58;;;2.10;;
51224;SDS011;37298;42.688;23.312;2024-02-04T11:06:06;3.65;;;2.38;;
51224;SDS011;37298;42.688;23.312;2024-02-04T11:08:33;2.20;;;1.88;;
51224;SDS011;37298;42.688;23.312;2024-02-04T11:11:00;3.33;;;2.35;;
51224;SDS011;37298;42.688;23.312;2024-02-04T11:13:26;4.15;;;2.60;;
51224;SDS011;37298;42.688;23.312;2024-02-04T11:15:55;3.58;;;2.28;;
51224;SDS011;37298;42.688;23.312;2024-02-04T11:18:32;3.10;;;2.30;;
51224;SDS011;37298;42.688;23.312;2024-02-04T11:21:22;5.43;;;2.13;;
51224;SDS011;37298;42.688;23.312;2024-02-04T11:23:52;2.03;;;1.77;;
51224;SDS011;37298;42.688;23.312;2024-02-04T11:26:24;6.35;;;2.35;;
51224;SDS011;37298;42.688;23.312;2024-02-04T11:28:51;3.75;;;2.28;;
51224;SDS011;37298;42.688;23.312;2024-02-04T11:31:18;5.72;;;2.00;;
51224;SDS011;37298;42.688;23.312;2024-02-04T11:33:45;2.00;;;1.75;;
51224;SDS011;37298;42.688;23.312;2024-02-04T11:36:12;2.85;;;1.85;;
51224;SDS011;37298;42.688;23.312;2024-02-04T11:38:39;4.65;;;1.90;;
51224;SDS011;37298;42.688;23.312;2024-02-04T11:41:05;5.20;;;1.60;;
51224;SDS011;37298;42.688;23.312;2024-02-04T11:43:32;3.47;;;1.95;;
51224;SDS011;37298;42.688;23.312;2024-02-04T11:45:59;3.17;;;1.98;;
51224;SDS011;37298;42.688;23.312;2024-02-04T11:48:29;2.67;;;1.80;;
51224;SDS011;37298;42.688;23.312;2024-02-04T11:50:57;5.10;;;2.05;;
51224;SDS011;37298;42.688;23.312;2024-02-04T11:53:24;3.30;;;2.10;;
51224;SDS011;37298;42.688;23.312;2024-02-04T11:55:53;7.13;;;1.70;;
51224;SDS011;37298;42.688;23.312;2024-02-04T11:58:19;2.10;;;1.90;;
51224;SDS011;37298;42.688;23.312;2024-02-04T12:00:46;5.22;;;1.92;;
51224;SDS011;37298;42.688;23.312;2024-02-04T12:03:14;3.38;;;1.92;;
51224;SDS011;37298;42.688;23.312;2024-02-04T12:05:41;1.45;;;1.30;;
51224;SDS011;37298;42.688;23.312;2024-02-04T12:08:09;2.72;;;2.05;;
51224;SDS011;37298;42.688;23.312;2024-02-04T12:10:35;3.33;;;2.35;;
51224;SDS011;37298;42.688;23.312;2024-02-04T12:13:02;6.15;;;2.30;;
51224;SDS011;37298;42.688;23.312;2024-02-04T12:15:28;8.90;;;2.25;;
51224;SDS011;37298;42.688;23.312;2024-02-04T12:17:55;3.80;;;1.67;;
51224;SDS011;37298;42.688;23.312;2024-02-04T12:20:22;3.17;;;2.00;;
51224;SDS011;37298;42.688;23.312;2024-02-04T12:22:49;2.47;;;1.50;;
51224;SDS011;37298;42.688;23.312;2024-02-04T12:25:15;3.90;;;2.10;;
51224;SDS011;37298;42.688;23.312;2024-02-04T12:27:43;2.95;;;1.90;;
51224;SDS011;37298;42.688;23.312;2024-02-04T12:30:09;2.95;;;2.20;;
51224;SDS011;37298;42.688;23.312;2024-02-04T12:35:20;2.10;;;1.52;;
51224;SDS011;37298;42.688;23.312;2024-02-04T12:37:51;2.58;;;1.90;;
51224;SDS011;37298;42.688;23.312;2024-02-04T12:40:20;2.42;;;2.03;;
51224;SDS011;37298;42.688;23.312;2024-02-04T12:42:51;4.18;;;2.72;;
51224;SDS011;37298;42.688;23.312;2024-02-04T12:45:18;5.03;;;2.90;;
51224;SDS011;37298;42.688;23.312;2024-02-04T12:47:44;4.25;;;2.60;;
51224;SDS011;37298;42.688;23.312;2024-02-04T12:50:11;4.60;;;1.98;;
51224;SDS011;37298;42.688;23.312;2024-02-04T12:52:37;2.53;;;1.92;;
51224;SDS011;37298;42.688;23.312;2024-02-04T12:55:06;2.88;;;1.90;;
51224;SDS011;37298;42.688;23.312;2024-02-04T12:57:32;2.95;;;2.20;;
51224;SDS011;37298;42.688;23.312;2024-02-04T13:00:03;3.67;;;1.95;;
51224;SDS011;37298;42.688;23.312;2024-02-04T13:02:31;12.95;;;2.83;;
51224;SDS011;37298;42.688;23.312;2024-02-04T13:04:59;3.97;;;2.38;;
51224;SDS011;37298;42.688;23.312;2024-02-04T13:07:25;3.83;;;2.50;;
51224;SDS011;37298;42.688;23.312;2024-02-04T13:09:57;2.83;;;2.20;;
51224;SDS011;37298;42.688;23.312;2024-02-04T13:12:24;6.82;;;2.63;;
51224;SDS011;37298;42.688;23.312;2024-02-04T13:14:50;2.95;;;2.53;;
51224;SDS011;37298;42.688;23.312;2024-02-04T13:17:16;3.03;;;2.40;;
51224;SDS011;37298;42.688;23.312;2024-02-04T13:19:43;3.42;;;2.42;;
51224;SDS011;37298;42.688;23.312;2024-02-04T13:22:10;3.58;;;2.05;;
51224;SDS011;37298;42.688;23.312;2024-02-04T13:24:36;7.20;;;3.80;;
51224;SDS011;37298;42.688;23.312;2024-02-04T13:27:03;4.28;;;2.58;;
51224;SDS011;37298;42.688;23.312;2024-02-04T13:29:31;4.03;;;2.40;;
51224;SDS011;37298;42.688;23.312;2024-02-04T13:31:58;3.47;;;2.20;;
51224;SDS011;37298;42.688;23.312;2024-02-04T13:34:24;4.78;;;2.58;;
51224;SDS011;37298;42.688;23.312;2024-02-04T13:36:51;3.20;;;2.40;;
51224;SDS011;37298;42.688;23.312;2024-02-04T13:39:17;3.97;;;2.53;;
51224;SDS011;37298;42.688;23.312;2024-02-04T13:41:44;2.83;;;2.22;;
51224;SDS011;37298;42.688;23.312;2024-02-04T13:44:10;4.50;;;2.30;;
51224;SDS011;37298;42.688;23.312;2024-02-04T13:46:37;4.05;;;2.53;;
51224;SDS011;37298;42.688;23.312;2024-02-04T13:49:07;4.25;;;2.60;;
51224;SDS011;37298;42.688;23.312;2024-02-04T13:51:33;2.83;;;2.33;;
51224;SDS011;37298;42.688;23.312;2024-02-04T13:54:01;2.80;;;2.00;;
51224;SDS011;37298;42.688;23.312;2024-02-04T13:56:27;3.33;;;2.53;;
51224;SDS011;37298;42.688;23.312;2024-02-04T13:58:55;5.22;;;2.55;;
51224;SDS011;37298;42.688;23.312;2024-02-04T14:01:21;4.63;;;2.55;;
51224;SDS011;37298;42.688;23.312;2024-02-04T14:03:49;4.07;;;2.33;;
51224;SDS011;37298;42.688;23.312;2024-02-04T14:06:17;7.57;;;3.10;;
51224;SDS011;37298;42.688;23.312;2024-02-04T14:08:43;6.40;;;4.18;;
51224;SDS011;37298;42.688;23.312;2024-02-04T14:11:10;6.57;;;4.38;;
51224;SDS011;37298;42.688;23.312;2024-02-04T14:13:36;6.10;;;4.53;;
51224;SDS011;37298;42.688;23.312;2024-02-04T14:16:03;6.20;;;4.30;;
51224;SDS011;37298;42.688;23.312;2024-02-04T14:18:29;5.60;;;3.30;;
51224;SDS011;37298;42.688;23.312;2024-02-04T14:20:56;10.50;;;2.92;;
51224;SDS011;37298;42.688;23.312;2024-02-04T14:23:22;6.03;;;3.65;;
51224;SDS011;37298;42.688;23.312;2024-02-04T14:25:48;5.97;;;3.53;;
51224;SDS011;37298;42.688;23.312;2024-02-04T14:28:15;4.80;;;3.47;;
51224;SDS011;37298;42.688;23.312;2024-02-04T14:30:41;5.90;;;3.60;;
51224;SDS011;37298;42.688;23.312;2024-02-04T14:33:08;5.95;;;3.63;;
51224;SDS011;37298;42.688;23.312;2024-02-04T14:35:34;4.05;;;2.80;;